createdAt,value
2018-11-04T00:00:54.835Z,77.63
2018-11-04T00:04:00.814Z,77.40
2018-11-04T00:07:06.786Z,77.54
2018-11-04T00:10:12.638Z,77.51
2018-11-04T00:13:18.751Z,76.94
2018-11-04T00:16:24.226Z,77.17
2018-11-04T00:19:29.634Z,77.59
2018-11-04T00:22:35.142Z,77.75
2018-11-04T00:25:40.498Z,77.81
2018-11-04T00:28:45.862Z,77.78
2018-11-04T00:31:51.346Z,77.54
2018-11-04T00:34:56.762Z,78.12
2018-11-04T00:38:02.149Z,77.99
2018-11-04T00:41:07.886Z,78.09
2018-11-04T00:44:13.239Z,77.92
2018-11-04T00:47:18.780Z,78.10
2018-11-04T00:50:24.130Z,77.80
2018-11-04T00:53:29.612Z,77.98
2018-11-04T00:56:35.024Z,77.84
2018-11-04T00:59:40.466Z,78.08
2018-11-04T01:02:47.058Z,77.89
2018-11-04T01:05:52.402Z,77.94
2018-11-04T01:08:57.794Z,78.06
2018-11-04T01:12:03.659Z,77.72
2018-11-04T01:15:11.187Z,78.35
2018-11-04T01:18:16.558Z,78.67
2018-11-04T01:21:21.958Z,78.09
2018-11-04T01:24:27.992Z,77.91
2018-11-04T01:27:33.558Z,77.97
2018-11-04T01:30:39.594Z,78.62
2018-11-04T01:33:44.995Z,78.13
2018-11-04T01:36:50.546Z,78.58
2018-11-04T01:39:55.962Z,78.34
2018-11-04T01:43:01.358Z,78.52
2018-11-04T01:46:06.914Z,79.07
2018-11-04T01:49:12.609Z,78.95
2018-11-04T01:52:18.077Z,79.11
2018-11-04T01:55:23.418Z,79.04
2018-11-04T01:58:28.884Z,79.49
2018-11-04T02:01:34.330Z,79.29
2018-11-04T02:04:39.706Z,79.40
2018-11-04T02:07:45.054Z,80.23
2018-11-04T02:10:50.406Z,79.67
2018-11-04T02:13:55.851Z,79.92
2018-11-04T02:17:01.186Z,80.08
2018-11-04T02:20:08.002Z,80.57
2018-11-04T02:23:13.401Z,80.54
2018-11-04T02:26:18.754Z,80.64
2018-11-04T02:29:24.093Z,80.98
2018-11-04T02:32:29.611Z,81.19
2018-11-04T02:35:35.591Z,80.88
2018-11-04T02:38:41.086Z,80.72
2018-11-04T02:41:46.554Z,80.67
2018-11-04T02:44:51.945Z,81.00
2018-11-04T02:47:57.305Z,80.65
2018-11-04T02:51:02.659Z,81.02
2018-11-04T02:54:08.011Z,80.71
2018-11-04T02:57:13.339Z,81.11
2018-11-04T03:00:18.741Z,81.37
2018-11-04T03:03:24.178Z,81.60
2018-11-04T03:06:29.526Z,81.75
2018-11-04T03:09:34.900Z,82.18
2018-11-04T03:12:40.510Z,81.99
2018-11-04T03:15:45.849Z,82.64
2018-11-04T03:18:51.218Z,82.72
2018-11-04T03:21:56.673Z,82.85
2018-11-04T03:25:02.046Z,83.14
2018-11-04T03:28:09.323Z,83.05
2018-11-04T03:31:14.714Z,82.83
2018-11-04T03:34:20.082Z,84.00
2018-11-04T03:37:25.447Z,83.31
2018-11-04T03:40:30.836Z,83.07
2018-11-04T03:43:36.325Z,82.86
2018-11-04T03:46:41.719Z,82.97
2018-11-04T03:49:47.077Z,82.16
2018-11-04T03:52:52.575Z,82.78
2018-11-04T03:55:57.916Z,82.91
2018-11-04T03:59:03.710Z,82.29
2018-11-04T04:02:09.320Z,81.92
2018-11-04T04:05:14.670Z,81.65
2018-11-04T04:08:20.286Z,82.37
2018-11-04T04:11:25.739Z,82.08
2018-11-04T04:14:31.085Z,81.74
2018-11-04T04:17:36.435Z,81.68
2018-11-04T04:20:41.811Z,81.98
2018-11-04T04:23:47.312Z,82.11
2018-11-04T04:26:52.657Z,82.19
2018-11-04T04:29:58.669Z,81.99
2018-11-04T04:33:04.093Z,82.38
2018-11-04T04:36:09.441Z,81.79
2018-11-04T04:39:14.792Z,82.10
2018-11-04T04:42:20.222Z,82.10
2018-11-04T04:45:25.571Z,82.56
2018-11-04T04:48:31.282Z,82.56
2018-11-04T04:51:36.634Z,82.86
2018-11-04T04:54:44.124Z,82.91
2018-11-04T04:57:49.455Z,82.74
2018-11-04T05:00:55.714Z,82.86
2018-11-04T05:04:01.077Z,81.83
2018-11-04T05:07:06.998Z,82.25
2018-11-04T05:10:12.687Z,82.04
2018-11-04T05:13:18.110Z,82.58
2018-11-04T05:16:23.487Z,82.39
2018-11-04T05:19:28.898Z,82.33
2018-11-04T05:22:34.387Z,83.21
2018-11-04T05:25:39.759Z,82.88
2018-11-04T05:28:45.139Z,83.35
2018-11-04T05:31:50.690Z,83.51
2018-11-04T05:34:56.133Z,83.09
2018-11-04T05:38:01.591Z,83.00
2018-11-04T05:41:07.442Z,83.31
2018-11-04T05:44:12.798Z,83.12
2018-11-04T05:47:18.166Z,83.39
2018-11-04T05:50:24.212Z,83.04
2018-11-04T05:53:29.669Z,83.15
2018-11-04T05:56:35.187Z,83.25
2018-11-04T05:59:40.553Z,83.44
2018-11-04T06:02:47.059Z,83.18
2018-11-04T06:05:52.434Z,83.95
2018-11-04T06:08:57.798Z,84.26
2018-11-04T06:12:03.410Z,84.57
2018-11-04T06:15:09.551Z,84.49
2018-11-04T06:18:15.484Z,84.63
2018-11-04T06:21:20.976Z,85.22
2018-11-04T06:24:26.366Z,85.32
2018-11-04T06:27:31.734Z,85.14
2018-11-04T06:30:37.098Z,85.92
2018-11-04T06:33:42.985Z,85.04
2018-11-04T06:36:48.378Z,84.87
2018-11-04T06:39:53.748Z,85.11
2018-11-04T06:42:59.242Z,85.37
2018-11-04T06:46:04.614Z,85.51
2018-11-04T06:49:10.026Z,85.17
2018-11-04T06:52:15.472Z,84.80
2018-11-04T06:55:20.818Z,84.64
2018-11-04T06:58:26.335Z,84.13
2018-11-04T07:01:31.971Z,84.01
2018-11-04T07:04:37.348Z,83.77
2018-11-04T07:07:43.167Z,83.57
2018-11-04T07:10:48.509Z,83.19
2018-11-04T07:13:53.895Z,83.07
2018-11-04T07:16:59.238Z,83.78
2018-11-04T07:20:05.266Z,82.97
2018-11-04T07:23:10.874Z,82.75
2018-11-04T07:26:16.206Z,83.01
2018-11-04T07:29:21.566Z,82.62
2018-11-04T07:32:27.044Z,82.81
2018-11-04T07:35:34.499Z,82.74
2018-11-04T07:38:39.845Z,82.17
2018-11-04T07:41:45.282Z,81.92
2018-11-04T07:44:50.653Z,82.18
2018-11-04T07:47:56.015Z,81.85
2018-11-04T07:51:01.354Z,81.73
2018-11-04T07:54:07.310Z,81.67
2018-11-04T07:57:14.856Z,81.97
2018-11-04T08:00:20.239Z,81.44
2018-11-04T08:03:25.802Z,81.69
2018-11-04T08:06:31.329Z,81.21
2018-11-04T08:09:36.678Z,81.96
2018-11-04T08:12:42.126Z,82.18
2018-11-04T08:15:47.472Z,81.53
2018-11-04T08:18:52.834Z,82.29
2018-11-04T08:21:58.250Z,81.63
2018-11-04T08:25:03.610Z,81.89
2018-11-04T08:28:09.397Z,81.32
2018-11-04T08:31:14.830Z,81.79
2018-11-04T08:34:20.378Z,82.87
2018-11-04T08:37:26.336Z,82.96
2018-11-04T08:40:31.765Z,83.14
2018-11-04T08:43:37.373Z,83.11
2018-11-04T08:46:42.966Z,82.65
2018-11-04T08:49:48.367Z,82.83
2018-11-04T08:52:53.762Z,83.02
2018-11-04T08:55:59.113Z,84.06
2018-11-04T08:59:04.470Z,84.62
2018-11-04T09:02:09.925Z,84.01
2018-11-04T09:05:15.283Z,84.25
2018-11-04T09:08:21.000Z,84.06
2018-11-04T09:11:26.472Z,84.06
2018-11-04T09:14:31.830Z,84.29
2018-11-04T09:17:37.170Z,84.61
2018-11-04T09:20:42.692Z,84.41
2018-11-04T09:23:48.302Z,84.11
2018-11-04T09:26:55.854Z,84.47
2018-11-04T09:30:01.251Z,84.56
2018-11-04T09:33:07.170Z,84.54
2018-11-04T09:36:12.683Z,83.46
2018-11-04T09:39:18.203Z,84.04
2018-11-04T09:42:23.649Z,84.13
2018-11-04T09:45:29.046Z,83.98
2018-11-04T09:48:34.469Z,84.73
2018-11-04T09:51:40.259Z,84.37
2018-11-04T09:54:45.944Z,83.89
2018-11-04T09:57:51.329Z,83.84
2018-11-04T10:00:56.768Z,83.69
2018-11-04T10:04:02.162Z,83.93
2018-11-04T10:07:08.244Z,83.79
2018-11-04T10:10:15.310Z,83.46
2018-11-04T10:13:20.906Z,82.82
2018-11-04T10:16:27.281Z,83.43
2018-11-04T10:19:32.989Z,83.90
2018-11-04T10:22:38.546Z,84.03
2018-11-04T10:25:43.930Z,83.66
2018-11-04T10:28:49.298Z,83.82
2018-11-04T10:31:58.602Z,83.90
2018-11-04T10:35:04.015Z,83.66
2018-11-04T10:38:09.369Z,84.25
2018-11-04T10:41:15.004Z,84.49
2018-11-04T10:44:20.374Z,83.86
2018-11-04T10:47:26.097Z,84.16
2018-11-04T10:50:31.470Z,83.46
2018-11-04T10:53:37.749Z,82.98
2018-11-04T10:56:45.307Z,83.79
2018-11-04T10:59:51.048Z,83.92
2018-11-04T11:02:56.499Z,83.58
2018-11-04T11:06:02.037Z,83.19
2018-11-04T11:09:10.066Z,83.37
2018-11-04T11:12:17.273Z,83.60
2018-11-04T11:15:22.676Z,83.06
2018-11-04T11:18:28.418Z,83.99
2018-11-04T11:21:33.909Z,83.56
2018-11-04T11:24:39.349Z,83.03
2018-11-04T11:27:44.763Z,82.27
2018-11-04T11:30:50.534Z,82.38
2018-11-04T11:33:58.436Z,82.71
2018-11-04T11:37:06.162Z,83.20
2018-11-04T11:40:11.955Z,82.21
2018-11-04T11:43:17.461Z,82.19
2018-11-04T11:46:22.894Z,81.73
2018-11-04T11:49:28.296Z,81.01
2018-11-04T11:52:33.942Z,80.92
2018-11-04T11:55:41.805Z,81.48
2018-11-04T11:58:47.267Z,80.88
2018-11-04T12:01:52.746Z,81.17
2018-11-04T12:04:58.137Z,80.35
2018-11-04T12:08:03.557Z,80.93
2018-11-04T12:11:08.983Z,80.95
2018-11-04T12:14:14.381Z,80.93
2018-11-04T12:17:19.818Z,80.59
2018-11-04T12:20:25.770Z,79.96
2018-11-04T12:23:31.623Z,79.81
2018-11-04T12:26:37.222Z,78.87
2018-11-04T12:29:43.143Z,79.78
2018-11-04T12:32:48.569Z,79.79
2018-11-04T12:35:54.524Z,80.47
2018-11-04T12:38:59.930Z,80.29
2018-11-04T12:42:05.671Z,80.12
2018-11-04T12:45:12.450Z,79.71
2018-11-04T12:48:18.297Z,80.47
2018-11-04T12:51:23.717Z,80.82
2018-11-04T12:54:29.110Z,79.91
2018-11-04T12:57:35.052Z,79.90
2018-11-04T13:00:40.488Z,80.24
2018-11-04T13:03:45.937Z,79.84
2018-11-04T13:06:51.387Z,79.98
2018-11-04T13:09:56.885Z,80.43
2018-11-04T13:13:02.515Z,79.72
2018-11-04T13:16:08.078Z,80.59
2018-11-04T13:19:13.485Z,79.95
2018-11-04T13:22:18.937Z,80.69
2018-11-04T13:25:24.408Z,81.10
2018-11-04T13:28:30.460Z,81.15
2018-11-04T13:31:36.146Z,81.00
2018-11-04T13:34:41.880Z,80.56
2018-11-04T13:37:49.710Z,80.43
2018-11-04T13:40:55.583Z,80.78
2018-11-04T13:44:01.019Z,80.46
2018-11-04T13:47:06.539Z,79.93
2018-11-04T13:50:14.505Z,79.54
2018-11-04T13:53:19.925Z,80.10
2018-11-04T13:56:25.400Z,79.92
2018-11-04T13:59:30.826Z,80.06
2018-11-04T14:02:36.780Z,79.89
2018-11-04T14:05:42.739Z,79.26
2018-11-04T14:08:48.884Z,79.75
2018-11-04T14:11:54.321Z,80.12
2018-11-04T14:14:59.756Z,80.73
2018-11-04T14:18:05.707Z,80.23
2018-11-04T14:21:11.110Z,79.82
2018-11-04T14:24:16.509Z,79.68
2018-11-04T14:27:21.970Z,79.68
2018-11-04T14:30:27.338Z,79.63
2018-11-04T14:33:32.781Z,80.07
2018-11-04T14:36:38.746Z,80.30
2018-11-04T14:39:44.313Z,80.51
2018-11-04T14:42:49.744Z,80.56
2018-11-04T14:45:55.354Z,80.33
2018-11-04T14:49:01.527Z,80.00
2018-11-04T14:52:06.937Z,79.57
2018-11-04T14:55:12.810Z,80.70
2018-11-04T14:58:18.246Z,80.15
2018-11-04T15:01:23.796Z,79.61
2018-11-04T15:04:29.333Z,79.51
2018-11-04T15:07:34.854Z,79.69
2018-11-04T15:10:40.318Z,80.12
2018-11-04T15:13:45.723Z,79.80
2018-11-04T15:16:51.178Z,80.70
2018-11-04T15:19:56.741Z,80.25
2018-11-04T15:23:02.421Z,81.11
2018-11-04T15:26:08.900Z,80.71
2018-11-04T15:29:14.288Z,81.05
2018-11-04T15:32:19.722Z,80.64
2018-11-04T15:35:25.641Z,81.35
2018-11-04T15:38:31.063Z,80.72
2018-11-04T15:41:36.491Z,81.35
2018-11-04T15:44:41.892Z,80.84
2018-11-04T15:47:47.363Z,80.50
2018-11-04T15:50:53.114Z,80.66
2018-11-04T15:53:58.575Z,80.74
2018-11-04T15:57:09.323Z,80.66
2018-11-04T16:00:15.710Z,80.76
2018-11-04T16:03:21.150Z,81.08
2018-11-04T16:06:26.574Z,80.41
2018-11-04T16:09:31.989Z,80.50
2018-11-04T16:12:48.480Z,80.54
2018-11-04T16:16:03.800Z,80.30
2018-11-04T16:19:23.053Z,80.25
2018-11-04T16:22:28.459Z,80.79
2018-11-04T16:25:33.943Z,80.27
2018-11-04T16:28:39.556Z,79.83
2018-11-04T16:31:45.036Z,80.66
2018-11-04T16:34:50.446Z,80.63
2018-11-04T16:37:55.881Z,80.72
2018-11-04T16:41:01.494Z,81.06
2018-11-04T16:44:07.706Z,80.97
2018-11-04T16:47:13.146Z,80.94
2018-11-04T16:50:18.582Z,80.77
2018-11-04T16:53:24.095Z,80.77
2018-11-04T16:56:31.304Z,81.19
2018-11-04T16:59:36.774Z,81.00
2018-11-04T17:02:43.969Z,81.79
2018-11-04T17:05:51.564Z,81.78
2018-11-04T17:08:57.160Z,81.95
2018-11-04T17:12:02.622Z,82.21
2018-11-04T17:15:11.422Z,83.33
2018-11-04T17:18:16.938Z,83.11
2018-11-04T17:21:22.898Z,83.86
2018-11-04T17:24:30.062Z,83.90
2018-11-04T17:27:35.527Z,84.19
2018-11-04T17:30:40.936Z,84.00
2018-11-04T17:33:46.422Z,83.76
2018-11-04T17:36:51.826Z,84.19
2018-11-04T17:39:57.540Z,84.32
2018-11-04T17:43:03.038Z,84.70
2018-11-04T17:46:08.586Z,84.59
2018-11-04T17:49:13.999Z,84.53
2018-11-04T17:52:19.475Z,84.64
2018-11-04T17:55:24.887Z,84.12
2018-11-04T17:58:30.272Z,84.65
2018-11-04T18:01:35.750Z,84.86
2018-11-04T18:04:41.156Z,84.60
2018-11-04T18:07:47.267Z,85.04
2018-11-04T18:10:52.676Z,85.93
2018-11-04T18:13:58.172Z,85.48
2018-11-04T18:17:03.694Z,85.25
2018-11-04T18:20:10.782Z,85.14
2018-11-04T18:23:16.214Z,85.32
2018-11-04T18:26:21.764Z,85.75
2018-11-04T18:29:27.330Z,85.77
2018-11-04T18:32:32.794Z,86.74
2018-11-04T18:35:38.286Z,86.98
2018-11-04T18:38:43.666Z,86.08
2018-11-04T18:41:49.139Z,86.47
2018-11-04T18:44:54.611Z,86.17
2018-11-04T18:48:00.513Z,85.92
2018-11-04T18:51:06.542Z,86.10
2018-11-04T18:54:13.227Z,86.18
2018-11-04T18:57:18.679Z,86.17
2018-11-04T19:00:24.210Z,86.09
2018-11-04T19:03:31.785Z,86.55
2018-11-04T19:06:37.287Z,86.39
2018-11-04T19:09:43.004Z,86.42
2018-11-04T19:12:48.505Z,86.37
2018-11-04T19:15:53.955Z,85.92
2018-11-04T19:18:59.456Z,86.07
2018-11-04T19:22:05.314Z,85.56
2018-11-04T19:25:12.398Z,85.58
2018-11-04T19:28:17.910Z,85.88
2018-11-04T19:31:24.135Z,85.65
2018-11-04T19:34:29.597Z,85.75
2018-11-04T19:37:35.037Z,85.96
2018-11-04T19:40:40.508Z,85.86
2018-11-04T19:43:46.037Z,85.77
2018-11-04T19:46:51.689Z,86.12
2018-11-04T19:49:57.065Z,86.22
2018-11-04T19:53:03.050Z,86.41
2018-11-04T19:56:08.894Z,86.07
2018-11-04T19:59:14.318Z,86.04
2018-11-04T20:02:20.034Z,85.70
2018-11-04T20:05:25.564Z,86.11
2018-11-04T20:08:31.418Z,86.13
2018-11-04T20:11:36.919Z,86.60
2018-11-04T20:14:42.346Z,87.29
2018-11-04T20:17:48.659Z,86.63
2018-11-04T20:20:54.499Z,87.05
2018-11-04T20:24:02.898Z,87.89
2018-11-04T20:27:08.322Z,88.00
2018-11-04T20:30:14.365Z,88.31
2018-11-04T20:33:19.829Z,87.98
2018-11-04T20:36:25.949Z,87.41
2018-11-04T20:39:36.606Z,87.59
2018-11-04T20:42:42.131Z,87.30
2018-11-04T20:45:47.511Z,87.23
2018-11-04T20:48:58.067Z,87.47
2018-11-04T20:52:03.603Z,87.67
2018-11-04T20:55:09.206Z,87.56
2018-11-04T20:58:14.737Z,87.60
2018-11-04T21:01:20.925Z,87.09
2018-11-04T21:04:26.313Z,87.93
2018-11-04T21:07:31.714Z,88.00
2018-11-04T21:10:37.097Z,88.03
2018-11-04T21:13:42.529Z,87.65
2018-11-04T21:16:48.125Z,87.95
2018-11-04T21:19:53.549Z,88.02
2018-11-04T21:22:58.969Z,88.26
2018-11-04T21:26:04.431Z,88.82
2018-11-04T21:29:10.043Z,87.97
2018-11-04T21:32:15.549Z,87.81
2018-11-04T21:35:20.928Z,88.35
2018-11-04T21:38:26.402Z,88.37
2018-11-04T21:41:31.875Z,88.99
2018-11-04T21:44:37.358Z,88.70
2018-11-04T21:47:43.304Z,88.51
2018-11-04T21:50:48.816Z,88.75
2018-11-04T21:53:54.482Z,87.90
2018-11-04T21:56:59.903Z,88.28
2018-11-04T22:00:08.306Z,88.68
2018-11-04T22:03:13.991Z,88.08
2018-11-04T22:06:19.462Z,89.21
2018-11-04T22:09:24.871Z,88.75
2018-11-04T22:12:30.909Z,88.54
2018-11-04T22:15:36.818Z,88.89
2018-11-04T22:18:42.253Z,88.81
2018-11-04T22:21:47.865Z,89.64
2018-11-04T22:24:53.285Z,89.49
2018-11-04T22:27:58.714Z,89.53
2018-11-04T22:31:04.203Z,88.24
2018-11-04T22:34:10.139Z,88.68
2018-11-04T22:37:15.667Z,88.86
2018-11-04T22:40:21.078Z,89.09
2018-11-04T22:43:26.598Z,89.21
2018-11-04T22:46:32.008Z,88.58
2018-11-04T22:49:37.422Z,88.84
2018-11-04T22:52:43.318Z,89.10
2018-11-04T22:55:48.746Z,89.08
2018-11-04T22:58:54.370Z,88.67
2018-11-04T23:01:59.943Z,88.40
2018-11-04T23:05:11.647Z,88.80
2018-11-04T23:08:17.077Z,88.65
2018-11-04T23:11:22.668Z,88.41
2018-11-04T23:14:28.066Z,87.89
2018-11-04T23:17:33.437Z,87.72
2018-11-04T23:20:38.845Z,88.44
2018-11-04T23:23:44.286Z,88.19
2018-11-04T23:26:49.677Z,88.29
2018-11-04T23:29:55.247Z,88.54
2018-11-04T23:33:00.714Z,88.75
2018-11-04T23:36:06.471Z,89.00
2018-11-04T23:39:11.930Z,89.19
2018-11-04T23:42:17.297Z,89.06
2018-11-04T23:45:22.694Z,88.43
2018-11-04T23:48:28.137Z,88.53
2018-11-04T23:51:33.850Z,88.93
2018-11-04T23:54:39.246Z,89.23
2018-11-04T23:57:44.655Z,88.67
